Pontes e Lacerda, Brazil
Current Conditions -  °F | °C
As of 8:00 PM on Sunday 23 Nov 2014 (Local Time) from SLSI Reporting Station
Broken Clouds Broken Clouds  
Wind Chill: 77°   Ceiling: 20000
Heat Index: 78°   Visibility: 6mi
Dew Point: 75°   Wind: 0mph
Humidity: 94%   Direction: NA
Pressure: 29.8"   Gusts: NA
Location:  15.23°S, 59.34°W
Report Text: SLSI 232300Z 00000KT 9999 SCT017 BKN200 25/24 Q1009
Loading
Personal Weather Stations






























Interactive Weather Map New forecast layout! Learn more

10-Day Weather Forecast

Advertisements
Track Severe Weather on mobile